sensor_id;sensor_type;location;lat;lon;timestamp;P1;durP1;ratioP1;P2;durP2;ratioP2
47844;SDS011;33605;48.822;8.796;2024-01-25T00:00:24;12.80;;;4.17;;
47844;SDS011;33605;48.822;8.796;2024-01-25T00:02:50;16.70;;;3.80;;
47844;SDS011;33605;48.822;8.796;2024-01-25T00:05:15;9.77;;;4.23;;
47844;SDS011;33605;48.822;8.796;2024-01-25T00:07:46;16.80;;;4.00;;
47844;SDS011;33605;48.822;8.796;2024-01-25T00:10:12;17.43;;;4.10;;
47844;SDS011;33605;48.822;8.796;2024-01-25T00:12:38;25.10;;;4.53;;
47844;SDS011;33605;48.822;8.796;2024-01-25T00:15:05;11.37;;;3.80;;
47844;SDS011;33605;48.822;8.796;2024-01-25T00:17:31;19.77;;;4.43;;
47844;SDS011;33605;48.822;8.796;2024-01-25T00:19:57;20.50;;;3.83;;
47844;SDS011;33605;48.822;8.796;2024-01-25T00:22:23;14.03;;;4.30;;
47844;SDS011;33605;48.822;8.796;2024-01-25T00:24:49;11.20;;;3.93;;
47844;SDS011;33605;48.822;8.796;2024-01-25T00:27:16;18.83;;;4.43;;
47844;SDS011;33605;48.822;8.796;2024-01-25T00:29:42;16.27;;;3.70;;
47844;SDS011;33605;48.822;8.796;2024-01-25T00:32:08;20.87;;;3.50;;
47844;SDS011;33605;48.822;8.796;2024-01-25T00:34:34;11.27;;;3.93;;
47844;SDS011;33605;48.822;8.796;2024-01-25T00:37:01;15.10;;;4.57;;
47844;SDS011;33605;48.822;8.796;2024-01-25T00:39:27;15.60;;;3.40;;
47844;SDS011;33605;48.822;8.796;2024-01-25T00:41:54;18.73;;;4.40;;
47844;SDS011;33605;48.822;8.796;2024-01-25T00:44:23;15.20;;;3.30;;
47844;SDS011;33605;48.822;8.796;2024-01-25T00:46:49;14.00;;;4.73;;
47844;SDS011;33605;48.822;8.796;2024-01-25T00:49:17;8.40;;;3.07;;
47844;SDS011;33605;48.822;8.796;2024-01-25T00:51:44;11.20;;;3.40;;
47844;SDS011;33605;48.822;8.796;2024-01-25T00:54:12;14.97;;;3.60;;
47844;SDS011;33605;48.822;8.796;2024-01-25T00:56:39;15.27;;;3.50;;
47844;SDS011;33605;48.822;8.796;2024-01-25T00:59:05;19.50;;;3.73;;
47844;SDS011;33605;48.822;8.796;2024-01-25T01:01:31;15.80;;;4.30;;
47844;SDS011;33605;48.822;8.796;2024-01-25T01:04:00;13.33;;;3.50;;
47844;SDS011;33605;48.822;8.796;2024-01-25T01:06:27;13.50;;;3.83;;
47844;SDS011;33605;48.822;8.796;2024-01-25T01:08:53;11.73;;;4.90;;
47844;SDS011;33605;48.822;8.796;2024-01-25T01:11:19;12.33;;;3.53;;
47844;SDS011;33605;48.822;8.796;2024-01-25T01:13:46;13.70;;;4.30;;
47844;SDS011;33605;48.822;8.796;2024-01-25T01:16:11;20.73;;;4.57;;
47844;SDS011;33605;48.822;8.796;2024-01-25T01:18:41;14.27;;;3.70;;
47844;SDS011;33605;48.822;8.796;2024-01-25T01:21:06;14.23;;;4.77;;
47844;SDS011;33605;48.822;8.796;2024-01-25T01:23:32;12.73;;;3.70;;
47844;SDS011;33605;48.822;8.796;2024-01-25T01:25:58;14.67;;;4.10;;
47844;SDS011;33605;48.822;8.796;2024-01-25T01:28:25;17.27;;;3.60;;
47844;SDS011;33605;48.822;8.796;2024-01-25T01:30:51;8.90;;;4.17;;
47844;SDS011;33605;48.822;8.796;2024-01-25T01:33:17;11.60;;;3.73;;
47844;SDS011;33605;48.822;8.796;2024-01-25T01:35:43;11.27;;;3.57;;
47844;SDS011;33605;48.822;8.796;2024-01-25T01:38:09;18.70;;;3.97;;
47844;SDS011;33605;48.822;8.796;2024-01-25T01:40:36;21.53;;;4.47;;
47844;SDS011;33605;48.822;8.796;2024-01-25T01:43:02;9.93;;;3.00;;
47844;SDS011;33605;48.822;8.796;2024-01-25T01:45:28;20.57;;;4.87;;
47844;SDS011;33605;48.822;8.796;2024-01-25T01:47:54;14.47;;;3.90;;
47844;SDS011;33605;48.822;8.796;2024-01-25T01:50:22;13.80;;;3.73;;
47844;SDS011;33605;48.822;8.796;2024-01-25T01:52:49;12.73;;;3.57;;
47844;SDS011;33605;48.822;8.796;2024-01-25T01:55:17;14.40;;;3.87;;
47844;SDS011;33605;48.822;8.796;2024-01-25T01:57:44;22.87;;;3.40;;
47844;SDS011;33605;48.822;8.796;2024-01-25T02:00:11;12.20;;;3.77;;
47844;SDS011;33605;48.822;8.796;2024-01-25T02:02:43;17.23;;;3.50;;
47844;SDS011;33605;48.822;8.796;2024-01-25T02:05:10;18.53;;;3.80;;
47844;SDS011;33605;48.822;8.796;2024-01-25T02:07:36;14.20;;;4.83;;
47844;SDS011;33605;48.822;8.796;2024-01-25T02:10:05;13.90;;;4.23;;
47844;SDS011;33605;48.822;8.796;2024-01-25T02:12:31;18.97;;;4.33;;
47844;SDS011;33605;48.822;8.796;2024-01-25T02:14:57;15.43;;;3.80;;
47844;SDS011;33605;48.822;8.796;2024-01-25T02:17:23;17.63;;;4.80;;
47844;SDS011;33605;48.822;8.796;2024-01-25T02:19:50;10.00;;;3.77;;
47844;SDS011;33605;48.822;8.796;2024-01-25T02:22:17;18.73;;;3.40;;
47844;SDS011;33605;48.822;8.796;2024-01-25T02:24:44;16.93;;;4.53;;
47844;SDS011;33605;48.822;8.796;2024-01-25T02:27:10;18.37;;;4.00;;
47844;SDS011;33605;48.822;8.796;2024-01-25T02:29:36;13.90;;;3.67;;
47844;SDS011;33605;48.822;8.796;2024-01-25T02:32:03;13.13;;;4.43;;
47844;SDS011;33605;48.822;8.796;2024-01-25T02:34:29;9.77;;;3.20;;
47844;SDS011;33605;48.822;8.796;2024-01-25T02:36:55;17.90;;;4.07;;
47844;SDS011;33605;48.822;8.796;2024-01-25T02:39:22;16.30;;;3.60;;
47844;SDS011;33605;48.822;8.796;2024-01-25T02:41:48;10.63;;;2.80;;
47844;SDS011;33605;48.822;8.796;2024-01-25T02:44:14;11.17;;;3.27;;
47844;SDS011;33605;48.822;8.796;2024-01-25T02:46:41;14.87;;;3.87;;
47844;SDS011;33605;48.822;8.796;2024-01-25T02:49:11;13.90;;;3.60;;
47844;SDS011;33605;48.822;8.796;2024-01-25T02:51:41;12.40;;;3.40;;
47844;SDS011;33605;48.822;8.796;2024-01-25T02:54:07;16.50;;;3.30;;
47844;SDS011;33605;48.822;8.796;2024-01-25T02:56:33;12.93;;;3.87;;
47844;SDS011;33605;48.822;8.796;2024-01-25T02:59:00;16.27;;;4.00;;
47844;SDS011;33605;48.822;8.796;2024-01-25T03:01:27;13.93;;;3.40;;
47844;SDS011;33605;48.822;8.796;2024-01-25T03:03:53;10.13;;;3.53;;
47844;SDS011;33605;48.822;8.796;2024-01-25T03:06:20;13.60;;;3.73;;
47844;SDS011;33605;48.822;8.796;2024-01-25T03:08:46;14.83;;;3.27;;
47844;SDS011;33605;48.822;8.796;2024-01-25T03:11:12;9.43;;;2.90;;
47844;SDS011;33605;48.822;8.796;2024-01-25T03:13:38;9.13;;;3.83;;
47844;SDS011;33605;48.822;8.796;2024-01-25T03:16:04;15.30;;;3.60;;
47844;SDS011;33605;48.822;8.796;2024-01-25T03:18:30;16.30;;;3.50;;
47844;SDS011;33605;48.822;8.796;2024-01-25T03:20:56;9.77;;;3.40;;
47844;SDS011;33605;48.822;8.796;2024-01-25T03:23:22;14.87;;;3.40;;
47844;SDS011;33605;48.822;8.796;2024-01-25T03:25:48;7.90;;;3.40;;
47844;SDS011;33605;48.822;8.796;2024-01-25T03:28:15;14.50;;;4.30;;
47844;SDS011;33605;48.822;8.796;2024-01-25T03:30:43;10.70;;;2.60;;
47844;SDS011;33605;48.822;8.796;2024-01-25T03:33:10;13.47;;;3.23;;
47844;SDS011;33605;48.822;8.796;2024-01-25T03:35:36;12.60;;;3.40;;
47844;SDS011;33605;48.822;8.796;2024-01-25T03:38:02;18.53;;;3.70;;
47844;SDS011;33605;48.822;8.796;2024-01-25T03:40:28;15.60;;;3.20;;
47844;SDS011;33605;48.822;8.796;2024-01-25T03:42:54;10.90;;;3.50;;
47844;SDS011;33605;48.822;8.796;2024-01-25T03:45:21;13.40;;;4.17;;
47844;SDS011;33605;48.822;8.796;2024-01-25T03:47:47;10.47;;;3.33;;
47844;SDS011;33605;48.822;8.796;2024-01-25T03:50:13;15.07;;;3.77;;
47844;SDS011;33605;48.822;8.796;2024-01-25T03:52:39;15.13;;;4.93;;
47844;SDS011;33605;48.822;8.796;2024-01-25T03:55:06;13.70;;;3.37;;
47844;SDS011;33605;48.822;8.796;2024-01-25T03:57:32;21.33;;;3.63;;
47844;SDS011;33605;48.822;8.796;2024-01-25T03:59:58;22.57;;;3.47;;
47844;SDS011;33605;48.822;8.796;2024-01-25T04:02:24;11.30;;;4.00;;
47844;SDS011;33605;48.822;8.796;2024-01-25T04:04:50;10.97;;;3.47;;
47844;SDS011;33605;48.822;8.796;2024-01-25T04:07:20;13.90;;;3.40;;
47844;SDS011;33605;48.822;8.796;2024-01-25T04:09:46;18.90;;;4.40;;
47844;SDS011;33605;48.822;8.796;2024-01-25T04:12:12;14.10;;;3.83;;
47844;SDS011;33605;48.822;8.796;2024-01-25T04:14:38;14.43;;;3.77;;
47844;SDS011;33605;48.822;8.796;2024-01-25T04:17:07;14.70;;;3.83;;
47844;SDS011;33605;48.822;8.796;2024-01-25T04:19:35;10.97;;;4.00;;
47844;SDS011;33605;48.822;8.796;2024-01-25T04:22:01;17.47;;;3.93;;
47844;SDS011;33605;48.822;8.796;2024-01-25T04:24:27;13.13;;;3.90;;
47844;SDS011;33605;48.822;8.796;2024-01-25T04:26:53;9.13;;;3.70;;
47844;SDS011;33605;48.822;8.796;2024-01-25T04:29:19;14.33;;;4.40;;
47844;SDS011;33605;48.822;8.796;2024-01-25T04:31:45;13.37;;;4.27;;
47844;SDS011;33605;48.822;8.796;2024-01-25T04:34:14;8.87;;;3.10;;
47844;SDS011;33605;48.822;8.796;2024-01-25T04:36:41;14.97;;;3.27;;
47844;SDS011;33605;48.822;8.796;2024-01-25T04:39:07;11.97;;;3.43;;
47844;SDS011;33605;48.822;8.796;2024-01-25T04:41:33;19.57;;;4.97;;
47844;SDS011;33605;48.822;8.796;2024-01-25T04:43:59;16.10;;;4.80;;
47844;SDS011;33605;48.822;8.796;2024-01-25T04:46:25;15.90;;;3.63;;
47844;SDS011;33605;48.822;8.796;2024-01-25T04:48:51;17.73;;;4.30;;
47844;SDS011;33605;48.822;8.796;2024-01-25T04:51:18;12.37;;;4.03;;
47844;SDS011;33605;48.822;8.796;2024-01-25T04:53:47;12.03;;;3.17;;
47844;SDS011;33605;48.822;8.796;2024-01-25T04:56:13;14.80;;;3.40;;
47844;SDS011;33605;48.822;8.796;2024-01-25T04:58:39;15.13;;;3.23;;
47844;SDS011;33605;48.822;8.796;2024-01-25T05:01:06;16.10;;;4.30;;
47844;SDS011;33605;48.822;8.796;2024-01-25T05:03:32;17.63;;;4.20;;
47844;SDS011;33605;48.822;8.796;2024-01-25T05:06:01;16.00;;;4.67;;
47844;SDS011;33605;48.822;8.796;2024-01-25T05:08:27;12.07;;;4.17;;
47844;SDS011;33605;48.822;8.796;2024-01-25T05:10:53;13.50;;;3.77;;
47844;SDS011;33605;48.822;8.796;2024-01-25T05:13:19;15.70;;;4.13;;
47844;SDS011;33605;48.822;8.796;2024-01-25T05:15:46;15.30;;;3.73;;
47844;SDS011;33605;48.822;8.796;2024-01-25T05:18:12;14.73;;;4.27;;
47844;SDS011;33605;48.822;8.796;2024-01-25T05:20:41;11.30;;;3.47;;
47844;SDS011;33605;48.822;8.796;2024-01-25T05:23:07;15.13;;;3.80;;
47844;SDS011;33605;48.822;8.796;2024-01-25T05:25:36;20.87;;;4.23;;
47844;SDS011;33605;48.822;8.796;2024-01-25T05:28:02;16.07;;;3.80;;
47844;SDS011;33605;48.822;8.796;2024-01-25T05:30:29;17.90;;;3.50;;
47844;SDS011;33605;48.822;8.796;2024-01-25T05:32:55;15.97;;;3.83;;
47844;SDS011;33605;48.822;8.796;2024-01-25T05:35:21;8.53;;;3.20;;
47844;SDS011;33605;48.822;8.796;2024-01-25T05:37:48;10.33;;;3.57;;
47844;SDS011;33605;48.822;8.796;2024-01-25T05:40:14;10.80;;;3.50;;
47844;SDS011;33605;48.822;8.796;2024-01-25T05:42:41;14.93;;;4.27;;
47844;SDS011;33605;48.822;8.796;2024-01-25T05:45:09;20.33;;;4.17;;
47844;SDS011;33605;48.822;8.796;2024-01-25T05:47:36;16.57;;;4.20;;
47844;SDS011;33605;48.822;8.796;2024-01-25T05:50:03;16.83;;;4.37;;
47844;SDS011;33605;48.822;8.796;2024-01-25T05:52:30;14.70;;;4.00;;
47844;SDS011;33605;48.822;8.796;2024-01-25T05:54:56;8.27;;;3.23;;
47844;SDS011;33605;48.822;8.796;2024-01-25T05:57:23;17.43;;;4.00;;
47844;SDS011;33605;48.822;8.796;2024-01-25T05:59:49;21.03;;;4.10;;
47844;SDS011;33605;48.822;8.796;2024-01-25T06:02:18;20.57;;;4.03;;
47844;SDS011;33605;48.822;8.796;2024-01-25T06:04:44;11.50;;;3.10;;
47844;SDS011;33605;48.822;8.796;2024-01-25T06:07:14;13.90;;;3.10;;
47844;SDS011;33605;48.822;8.796;2024-01-25T06:09:40;18.20;;;3.27;;
47844;SDS011;33605;48.822;8.796;2024-01-25T06:12:06;12.80;;;3.07;;
47844;SDS011;33605;48.822;8.796;2024-01-25T06:14:32;10.90;;;3.57;;
47844;SDS011;33605;48.822;8.796;2024-01-25T06:16:58;19.50;;;4.27;;
47844;SDS011;33605;48.822;8.796;2024-01-25T06:19:25;13.17;;;3.70;;
47844;SDS011;33605;48.822;8.796;2024-01-25T06:21:51;19.97;;;3.80;;
47844;SDS011;33605;48.822;8.796;2024-01-25T06:24:17;10.53;;;4.00;;
47844;SDS011;33605;48.822;8.796;2024-01-25T06:26:43;14.10;;;3.57;;
47844;SDS011;33605;48.822;8.796;2024-01-25T06:29:09;10.67;;;3.37;;
47844;SDS011;33605;48.822;8.796;2024-01-25T06:31:44;15.53;;;3.40;;
47844;SDS011;33605;48.822;8.796;2024-01-25T06:34:10;16.43;;;4.23;;
47844;SDS011;33605;48.822;8.796;2024-01-25T06:36:37;16.10;;;4.10;;
47844;SDS011;33605;48.822;8.796;2024-01-25T06:39:03;17.70;;;4.50;;
47844;SDS011;33605;48.822;8.796;2024-01-25T06:41:30;19.30;;;4.20;;
47844;SDS011;33605;48.822;8.796;2024-01-25T06:43:56;17.60;;;4.30;;
47844;SDS011;33605;48.822;8.796;2024-01-25T06:46:22;15.70;;;4.20;;
47844;SDS011;33605;48.822;8.796;2024-01-25T06:48:50;12.90;;;3.83;;
47844;SDS011;33605;48.822;8.796;2024-01-25T06:51:16;24.53;;;4.40;;
47844;SDS011;33605;48.822;8.796;2024-01-25T06:53:42;18.23;;;4.27;;
47844;SDS011;33605;48.822;8.796;2024-01-25T06:56:09;14.13;;;3.63;;
47844;SDS011;33605;48.822;8.796;2024-01-25T06:58:35;13.80;;;4.57;;
47844;SDS011;33605;48.822;8.796;2024-01-25T07:01:01;22.40;;;5.53;;
47844;SDS011;33605;48.822;8.796;2024-01-25T07:03:29;17.33;;;6.10;;
47844;SDS011;33605;48.822;8.796;2024-01-25T07:05:55;19.17;;;4.70;;
47844;SDS011;33605;48.822;8.796;2024-01-25T07:08:21;18.27;;;5.70;;
47844;SDS011;33605;48.822;8.796;2024-01-25T07:10:49;19.30;;;5.00;;
47844;SDS011;33605;48.822;8.796;2024-01-25T07:13:14;15.70;;;4.80;;
47844;SDS011;33605;48.822;8.796;2024-01-25T07:15:41;21.33;;;4.37;;
47844;SDS011;33605;48.822;8.796;2024-01-25T07:18:07;15.20;;;3.90;;
47844;SDS011;33605;48.822;8.796;2024-01-25T07:20:34;14.67;;;4.30;;
47844;SDS011;33605;48.822;8.796;2024-01-25T07:23:00;10.33;;;3.40;;
47844;SDS011;33605;48.822;8.796;2024-01-25T07:25:28;13.80;;;4.10;;
47844;SDS011;33605;48.822;8.796;2024-01-25T07:27:54;15.37;;;3.87;;
47844;SDS011;33605;48.822;8.796;2024-01-25T07:30:20;11.30;;;3.30;;
47844;SDS011;33605;48.822;8.796;2024-01-25T07:32:46;15.27;;;3.77;;
47844;SDS011;33605;48.822;8.796;2024-01-25T07:35:14;16.50;;;3.50;;
47844;SDS011;33605;48.822;8.796;2024-01-25T07:37:41;17.07;;;4.07;;
47844;SDS011;33605;48.822;8.796;2024-01-25T07:40:08;17.30;;;4.40;;
47844;SDS011;33605;48.822;8.796;2024-01-25T07:42:34;15.60;;;4.60;;
47844;SDS011;33605;48.822;8.796;2024-01-25T07:45:01;13.13;;;3.80;;
47844;SDS011;33605;48.822;8.796;2024-01-25T07:47:27;8.67;;;3.60;;
47844;SDS011;33605;48.822;8.796;2024-01-25T07:49:53;17.47;;;4.20;;
47844;SDS011;33605;48.822;8.796;2024-01-25T07:52:19;10.63;;;2.90;;
47844;SDS011;33605;48.822;8.796;2024-01-25T07:54:45;11.30;;;3.67;;
47844;SDS011;33605;48.822;8.796;2024-01-25T07:57:12;13.47;;;3.97;;
47844;SDS011;33605;48.822;8.796;2024-01-25T07:59:39;7.17;;;3.57;;
47844;SDS011;33605;48.822;8.796;2024-01-25T08:02:05;13.63;;;5.43;;
47844;SDS011;33605;48.822;8.796;2024-01-25T08:04:31;11.07;;;3.00;;
47844;SDS011;33605;48.822;8.796;2024-01-25T08:06:58;10.57;;;3.60;;
47844;SDS011;33605;48.822;8.796;2024-01-25T08:09:24;12.57;;;4.80;;
47844;SDS011;33605;48.822;8.796;2024-01-25T08:11:50;13.33;;;3.63;;
47844;SDS011;33605;48.822;8.796;2024-01-25T08:14:16;17.43;;;4.60;;
47844;SDS011;33605;48.822;8.796;2024-01-25T08:16:43;16.83;;;5.73;;
47844;SDS011;33605;48.822;8.796;2024-01-25T08:19:09;16.70;;;4.37;;
47844;SDS011;33605;48.822;8.796;2024-01-25T08:21:35;13.40;;;4.40;;
47844;SDS011;33605;48.822;8.796;2024-01-25T08:24:02;11.90;;;3.03;;
47844;SDS011;33605;48.822;8.796;2024-01-25T08:26:28;14.03;;;3.87;;
47844;SDS011;33605;48.822;8.796;2024-01-25T08:28:54;14.37;;;4.77;;
47844;SDS011;33605;48.822;8.796;2024-01-25T08:31:20;12.20;;;4.20;;
47844;SDS011;33605;48.822;8.796;2024-01-25T08:33:46;18.10;;;3.70;;
47844;SDS011;33605;48.822;8.796;2024-01-25T08:36:13;21.97;;;4.33;;
47844;SDS011;33605;48.822;8.796;2024-01-25T08:38:42;13.30;;;3.90;;
47844;SDS011;33605;48.822;8.796;2024-01-25T08:41:08;18.17;;;4.63;;
47844;SDS011;33605;48.822;8.796;2024-01-25T08:43:37;20.53;;;4.70;;
47844;SDS011;33605;48.822;8.796;2024-01-25T08:46:05;11.87;;;3.20;;
47844;SDS011;33605;48.822;8.796;2024-01-25T08:48:31;16.73;;;3.73;;
47844;SDS011;33605;48.822;8.796;2024-01-25T08:50:57;13.63;;;3.93;;
47844;SDS011;33605;48.822;8.796;2024-01-25T08:53:23;19.00;;;6.27;;
47844;SDS011;33605;48.822;8.796;2024-01-25T08:55:55;18.93;;;4.20;;
47844;SDS011;33605;48.822;8.796;2024-01-25T08:58:24;7.53;;;3.17;;
47844;SDS011;33605;48.822;8.796;2024-01-25T09:00:50;14.17;;;3.17;;
47844;SDS011;33605;48.822;8.796;2024-01-25T09:03:16;16.23;;;4.40;;
47844;SDS011;33605;48.822;8.796;2024-01-25T09:05:43;9.47;;;3.97;;
47844;SDS011;33605;48.822;8.796;2024-01-25T09:08:12;13.57;;;3.90;;
47844;SDS011;33605;48.822;8.796;2024-01-25T09:10:39;20.80;;;4.50;;
47844;SDS011;33605;48.822;8.796;2024-01-25T09:13:06;20.33;;;3.73;;
47844;SDS011;33605;48.822;8.796;2024-01-25T09:15:32;10.40;;;3.57;;
47844;SDS011;33605;48.822;8.796;2024-01-25T09:17:58;19.83;;;3.97;;
47844;SDS011;33605;48.822;8.796;2024-01-25T09:20:24;11.37;;;4.93;;
47844;SDS011;33605;48.822;8.796;2024-01-25T09:22:51;12.63;;;3.57;;
47844;SDS011;33605;48.822;8.796;2024-01-25T09:25:19;9.67;;;3.60;;
47844;SDS011;33605;48.822;8.796;2024-01-25T09:27:45;12.03;;;4.27;;
47844;SDS011;33605;48.822;8.796;2024-01-25T09:30:11;15.93;;;4.40;;
47844;SDS011;33605;48.822;8.796;2024-01-25T09:32:38;12.73;;;3.47;;
47844;SDS011;33605;48.822;8.796;2024-01-25T09:35:04;13.43;;;3.63;;
47844;SDS011;33605;48.822;8.796;2024-01-25T09:37:30;14.03;;;4.07;;
47844;SDS011;33605;48.822;8.796;2024-01-25T09:39:56;12.27;;;3.07;;
47844;SDS011;33605;48.822;8.796;2024-01-25T09:42:24;12.83;;;3.63;;
47844;SDS011;33605;48.822;8.796;2024-01-25T09:44:50;12.60;;;3.47;;
47844;SDS011;33605;48.822;8.796;2024-01-25T09:47:17;11.30;;;3.20;;
47844;SDS011;33605;48.822;8.796;2024-01-25T09:49:46;8.00;;;4.27;;
47844;SDS011;33605;48.822;8.796;2024-01-25T09:52:12;12.70;;;3.13;;
47844;SDS011;33605;48.822;8.796;2024-01-25T09:54:38;15.53;;;3.27;;
47844;SDS011;33605;48.822;8.796;2024-01-25T09:57:07;7.17;;;2.83;;
47844;SDS011;33605;48.822;8.796;2024-01-25T09:59:34;11.43;;;2.97;;
47844;SDS011;33605;48.822;8.796;2024-01-25T10:02:01;11.67;;;3.97;;
47844;SDS011;33605;48.822;8.796;2024-01-25T10:04:27;12.70;;;3.47;;
47844;SDS011;33605;48.822;8.796;2024-01-25T10:06:56;8.33;;;2.87;;
47844;SDS011;33605;48.822;8.796;2024-01-25T10:09:24;8.30;;;2.83;;
47844;SDS011;33605;48.822;8.796;2024-01-25T10:11:50;15.37;;;3.60;;
47844;SDS011;33605;48.822;8.796;2024-01-25T10:14:16;15.60;;;4.73;;
47844;SDS011;33605;48.822;8.796;2024-01-25T10:16:44;13.40;;;3.13;;
47844;SDS011;33605;48.822;8.796;2024-01-25T10:19:10;9.33;;;2.50;;
47844;SDS011;33605;48.822;8.796;2024-01-25T10:21:38;8.50;;;3.10;;
47844;SDS011;33605;48.822;8.796;2024-01-25T10:24:05;6.53;;;2.40;;
47844;SDS011;33605;48.822;8.796;2024-01-25T10:26:31;9.20;;;2.90;;
47844;SDS011;33605;48.822;8.796;2024-01-25T10:29:00;10.30;;;3.50;;
47844;SDS011;33605;48.822;8.796;2024-01-25T10:31:28;8.33;;;2.67;;
47844;SDS011;33605;48.822;8.796;2024-01-25T10:33:54;12.03;;;3.43;;
47844;SDS011;33605;48.822;8.796;2024-01-25T10:36:21;7.77;;;3.40;;
47844;SDS011;33605;48.822;8.796;2024-01-25T10:38:48;9.23;;;3.43;;
47844;SDS011;33605;48.822;8.796;2024-01-25T10:41:17;7.37;;;2.87;;
47844;SDS011;33605;48.822;8.796;2024-01-25T10:43:45;10.90;;;3.47;;
47844;SDS011;33605;48.822;8.796;2024-01-25T10:46:11;4.10;;;2.77;;
47844;SDS011;33605;48.822;8.796;2024-01-25T10:48:37;9.73;;;3.83;;
47844;SDS011;33605;48.822;8.796;2024-01-25T10:51:04;8.73;;;2.93;;
47844;SDS011;33605;48.822;8.796;2024-01-25T10:53:34;6.40;;;2.57;;
47844;SDS011;33605;48.822;8.796;2024-01-25T10:56:00;10.00;;;3.43;;
47844;SDS011;33605;48.822;8.796;2024-01-25T10:58:32;11.17;;;3.77;;
47844;SDS011;33605;48.822;8.796;2024-01-25T11:01:00;7.50;;;2.53;;
47844;SDS011;33605;48.822;8.796;2024-01-25T11:03:31;7.13;;;2.37;;
47844;SDS011;33605;48.822;8.796;2024-01-25T11:06:10;6.80;;;2.63;;
47844;SDS011;33605;48.822;8.796;2024-01-25T11:08:40;6.23;;;2.80;;
47844;SDS011;33605;48.822;8.796;2024-01-25T11:11:07;4.50;;;2.40;;
47844;SDS011;33605;48.822;8.796;2024-01-25T11:13:34;7.87;;;2.63;;
47844;SDS011;33605;48.822;8.796;2024-01-25T11:16:13;6.80;;;2.97;;
47844;SDS011;33605;48.822;8.796;2024-01-25T11:18:47;10.10;;;2.37;;
47844;SDS011;33605;48.822;8.796;2024-01-25T11:21:21;7.03;;;2.57;;
47844;SDS011;33605;48.822;8.796;2024-01-25T11:23:48;8.30;;;2.80;;
47844;SDS011;33605;48.822;8.796;2024-01-25T11:26:15;8.53;;;3.20;;
47844;SDS011;33605;48.822;8.796;2024-01-25T11:28:41;7.40;;;3.10;;
47844;SDS011;33605;48.822;8.796;2024-01-25T11:31:08;11.10;;;4.97;;
47844;SDS011;33605;48.822;8.796;2024-01-25T11:33:34;8.93;;;3.83;;
47844;SDS011;33605;48.822;8.796;2024-01-25T11:36:00;7.13;;;3.30;;
47844;SDS011;33605;48.822;8.796;2024-01-25T11:38:26;9.63;;;4.90;;
47844;SDS011;33605;48.822;8.796;2024-01-25T11:40:56;4.60;;;2.40;;
47844;SDS011;33605;48.822;8.796;2024-01-25T11:43:22;7.10;;;3.27;;
47844;SDS011;33605;48.822;8.796;2024-01-25T11:45:48;5.23;;;2.37;;
47844;SDS011;33605;48.822;8.796;2024-01-25T11:48:14;4.93;;;2.47;;
47844;SDS011;33605;48.822;8.796;2024-01-25T11:50:40;5.67;;;2.70;;
47844;SDS011;33605;48.822;8.796;2024-01-25T11:53:07;4.33;;;2.17;;
47844;SDS011;33605;48.822;8.796;2024-01-25T11:55:33;4.27;;;2.40;;
47844;SDS011;33605;48.822;8.796;2024-01-25T11:57:59;5.10;;;2.37;;
47844;SDS011;33605;48.822;8.796;2024-01-25T12:00:25;10.40;;;2.70;;
47844;SDS011;33605;48.822;8.796;2024-01-25T12:02:52;3.60;;;1.80;;
47844;SDS011;33605;48.822;8.796;2024-01-25T12:05:19;6.03;;;2.60;;
47844;SDS011;33605;48.822;8.796;2024-01-25T12:07:45;5.37;;;2.77;;
47844;SDS011;33605;48.822;8.796;2024-01-25T12:10:15;4.50;;;2.00;;
47844;SDS011;33605;48.822;8.796;2024-01-25T12:12:41;5.57;;;2.40;;
47844;SDS011;33605;48.822;8.796;2024-01-25T12:15:08;4.60;;;2.70;;
47844;SDS011;33605;48.822;8.796;2024-01-25T12:17:34;5.60;;;2.23;;
47844;SDS011;33605;48.822;8.796;2024-01-25T12:20:05;7.10;;;2.70;;
47844;SDS011;33605;48.822;8.796;2024-01-25T12:22:36;5.70;;;2.30;;
47844;SDS011;33605;48.822;8.796;2024-01-25T12:25:02;6.37;;;2.10;;
47844;SDS011;33605;48.822;8.796;2024-01-25T12:27:35;5.30;;;2.30;;
47844;SDS011;33605;48.822;8.796;2024-01-25T12:30:02;6.40;;;2.47;;
47844;SDS011;33605;48.822;8.796;2024-01-25T12:32:29;5.80;;;2.53;;
47844;SDS011;33605;48.822;8.796;2024-01-25T12:37:21;5.17;;;2.60;;
47844;SDS011;33605;48.822;8.796;2024-01-25T12:39:47;6.27;;;2.57;;
47844;SDS011;33605;48.822;8.796;2024-01-25T12:42:13;5.83;;;2.50;;
47844;SDS011;33605;48.822;8.796;2024-01-25T12:44:40;4.10;;;2.00;;
47844;SDS011;33605;48.822;8.796;2024-01-25T12:47:06;4.27;;;2.50;;
47844;SDS011;33605;48.822;8.796;2024-01-25T12:49:35;6.03;;;2.87;;
47844;SDS011;33605;48.822;8.796;2024-01-25T12:52:02;4.67;;;2.57;;
47844;SDS011;33605;48.822;8.796;2024-01-25T12:54:28;6.37;;;2.80;;
47844;SDS011;33605;48.822;8.796;2024-01-25T12:56:54;5.33;;;4.03;;
47844;SDS011;33605;48.822;8.796;2024-01-25T12:59:20;5.53;;;3.07;;
47844;SDS011;33605;48.822;8.796;2024-01-25T13:01:46;8.03;;;3.63;;
47844;SDS011;33605;48.822;8.796;2024-01-25T13:04:12;5.27;;;2.83;;
47844;SDS011;33605;48.822;8.796;2024-01-25T13:06:38;4.10;;;1.90;;
47844;SDS011;33605;48.822;8.796;2024-01-25T13:09:04;5.37;;;2.97;;
47844;SDS011;33605;48.822;8.796;2024-01-25T13:11:30;4.17;;;2.20;;
47844;SDS011;33605;48.822;8.796;2024-01-25T13:13:56;6.27;;;2.70;;
47844;SDS011;33605;48.822;8.796;2024-01-25T13:16:22;8.83;;;4.50;;
47844;SDS011;33605;48.822;8.796;2024-01-25T13:18:48;5.27;;;2.90;;
47844;SDS011;33605;48.822;8.796;2024-01-25T13:21:14;6.00;;;3.43;;
47844;SDS011;33605;48.822;8.796;2024-01-25T13:23:40;11.63;;;6.20;;
47844;SDS011;33605;48.822;8.796;2024-01-25T13:26:07;6.43;;;4.17;;
47844;SDS011;33605;48.822;8.796;2024-01-25T13:28:33;4.50;;;3.63;;
47844;SDS011;33605;48.822;8.796;2024-01-25T13:30:59;6.80;;;3.47;;
47844;SDS011;33605;48.822;8.796;2024-01-25T13:33:25;7.00;;;2.60;;
47844;SDS011;33605;48.822;8.796;2024-01-25T13:35:51;5.90;;;2.47;;
47844;SDS011;33605;48.822;8.796;2024-01-25T13:38:17;7.37;;;2.97;;
47844;SDS011;33605;48.822;8.796;2024-01-25T13:40:43;7.73;;;2.90;;
47844;SDS011;33605;48.822;8.796;2024-01-25T13:43:09;4.17;;;2.27;;
47844;SDS011;33605;48.822;8.796;2024-01-25T13:45:35;8.30;;;4.50;;
47844;SDS011;33605;48.822;8.796;2024-01-25T13:48:01;6.87;;;2.70;;
47844;SDS011;33605;48.822;8.796;2024-01-25T13:50:27;4.97;;;2.30;;
47844;SDS011;33605;48.822;8.796;2024-01-25T13:52:53;3.87;;;2.17;;
47844;SDS011;33605;48.822;8.796;2024-01-25T13:55:20;8.20;;;3.03;;
47844;SDS011;33605;48.822;8.796;2024-01-25T13:57:46;7.90;;;3.70;;
47844;SDS011;33605;48.822;8.796;2024-01-25T14:00:12;7.10;;;3.33;;
47844;SDS011;33605;48.822;8.796;2024-01-25T14:02:39;7.93;;;3.50;;
47844;SDS011;33605;48.822;8.796;2024-01-25T14:05:11;6.00;;;2.83;;
47844;SDS011;33605;48.822;8.796;2024-01-25T14:07:37;4.60;;;2.63;;
47844;SDS011;33605;48.822;8.796;2024-01-25T14:10:03;3.90;;;2.00;;
47844;SDS011;33605;48.822;8.796;2024-01-25T14:12:29;6.03;;;2.30;;
47844;SDS011;33605;48.822;8.796;2024-01-25T14:14:55;6.20;;;2.27;;
47844;SDS011;33605;48.822;8.796;2024-01-25T14:17:24;5.17;;;2.23;;
47844;SDS011;33605;48.822;8.796;2024-01-25T14:19:51;6.40;;;3.07;;
47844;SDS011;33605;48.822;8.796;2024-01-25T14:22:17;5.17;;;2.27;;
47844;SDS011;33605;48.822;8.796;2024-01-25T14:24:43;3.90;;;2.80;;
47844;SDS011;33605;48.822;8.796;2024-01-25T14:27:09;5.10;;;2.27;;
47844;SDS011;33605;48.822;8.796;2024-01-25T14:29:35;4.73;;;2.17;;
47844;SDS011;33605;48.822;8.796;2024-01-25T14:32:01;5.70;;;2.43;;
47844;SDS011;33605;48.822;8.796;2024-01-25T14:34:27;6.80;;;2.97;;
47844;SDS011;33605;48.822;8.796;2024-01-25T14:36:54;5.10;;;2.83;;